sensor_id;sensor_type;location;lat;lon;timestamp;pressure;altitude;pressure_sealevel;temperature;humidity
63907;BME280;50075;49.484;11.238;2022-08-01T00:00:24;97731.72;;;24.71;100.00
63907;BME280;50075;49.484;11.238;2022-08-01T00:02:49;97725.50;;;23.92;100.00
63907;BME280;50075;49.484;11.238;2022-08-01T00:05:15;97734.72;;;23.80;100.00
63907;BME280;50075;49.484;11.238;2022-08-01T00:07:40;97733.13;;;23.87;100.00
63907;BME280;50075;49.484;11.238;2022-08-01T00:10:09;97735.53;;;23.98;100.00
63907;BME280;50075;49.484;11.238;2022-08-01T00:12:35;97733.31;;;23.58;100.00
63907;BME280;50075;49.484;11.238;2022-08-01T00:15:00;97738.84;;;23.28;100.00
63907;BME280;50075;49.484;11.238;2022-08-01T00:17:26;97738.84;;;23.28;100.00
63907;BME280;50075;49.484;11.238;2022-08-01T00:19:51;97740.34;;;23.77;100.00
63907;BME280;50075;49.484;11.238;2022-08-01T00:22:16;97749.38;;;23.66;100.00
63907;BME280;50075;49.484;11.238;2022-08-01T00:24:42;97747.44;;;23.86;100.00
63907;BME280;50075;49.484;11.238;2022-08-01T00:27:07;97746.94;;;23.73;100.00
63907;BME280;50075;49.484;11.238;2022-08-01T00:29:33;97744.72;;;23.50;100.00
63907;BME280;50075;49.484;11.238;2022-08-01T00:31:58;97745.91;;;23.38;100.00
63907;BME280;50075;49.484;11.238;2022-08-01T00:34:23;97743.66;;;23.61;100.00
63907;BME280;50075;49.484;11.238;2022-08-01T00:36:49;97756.22;;;23.23;100.00
63907;BME280;50075;49.484;11.238;2022-08-01T00:39:14;97746.91;;;23.37;100.00
63907;BME280;50075;49.484;11.238;2022-08-01T00:41:39;97751.44;;;23.26;100.00
63907;BME280;50075;49.484;11.238;2022-08-01T00:44:05;97750.09;;;23.22;100.00
63907;BME280;50075;49.484;11.238;2022-08-01T00:46:31;97756.06;;;22.97;100.00
63907;BME280;50075;49.484;11.238;2022-08-01T00:48:57;97752.00;;;23.30;100.00
63907;BME280;50075;49.484;11.238;2022-08-01T00:51:23;97762.31;;;22.68;100.00
63907;BME280;50075;49.484;11.238;2022-08-01T00:53:49;97755.81;;;22.90;100.00
63907;BME280;50075;49.484;11.238;2022-08-01T00:56:15;97751.38;;;22.81;100.00
63907;BME280;50075;49.484;11.238;2022-08-01T00:58:41;97751.63;;;22.87;100.00
63907;BME280;50075;49.484;11.238;2022-08-01T01:01:06;97753.16;;;22.52;100.00
63907;BME280;50075;49.484;11.238;2022-08-01T01:03:31;97756.22;;;22.58;100.00
63907;BME280;50075;49.484;11.238;2022-08-01T01:11:52;97755.84;;;22.80;100.00
63907;BME280;50075;49.484;11.238;2022-08-01T01:14:56;97757.59;;;22.62;100.00
63907;BME280;50075;49.484;11.238;2022-08-01T01:17:47;97757.22;;;22.94;100.00
63907;BME280;50075;49.484;11.238;2022-08-01T01:20:13;97756.31;;;23.03;100.00
63907;BME280;50075;49.484;11.238;2022-08-01T01:22:53;97756.59;;;23.10;100.00
63907;BME280;50075;49.484;11.238;2022-08-01T01:25:39;97760.63;;;22.10;100.00
63907;BME280;50075;49.484;11.238;2022-08-01T01:28:20;97760.16;;;22.54;100.00
63907;BME280;50075;49.484;11.238;2022-08-01T01:30:51;97765.50;;;22.14;100.00
63907;BME280;50075;49.484;11.238;2022-08-01T01:33:19;97770.56;;;22.08;100.00
63907;BME280;50075;49.484;11.238;2022-08-01T01:35:48;97771.38;;;22.08;100.00
63907;BME280;50075;49.484;11.238;2022-08-01T01:38:26;97772.72;;;22.51;100.00
63907;BME280;50075;49.484;11.238;2022-08-01T01:40:55;97775.72;;;22.29;100.00
63907;BME280;50075;49.484;11.238;2022-08-01T01:43:21;97767.66;;;22.68;100.00
63907;BME280;50075;49.484;11.238;2022-08-01T01:45:49;97771.06;;;22.50;100.00
63907;BME280;50075;49.484;11.238;2022-08-01T01:48:18;97766.16;;;22.56;100.00
63907;BME280;50075;49.484;11.238;2022-08-01T01:50:48;97770.78;;;22.44;100.00
63907;BME280;50075;49.484;11.238;2022-08-01T01:53:17;97770.34;;;22.58;100.00
63907;BME280;50075;49.484;11.238;2022-08-01T01:55:45;97777.59;;;22.66;100.00
63907;BME280;50075;49.484;11.238;2022-08-01T01:58:13;97779.88;;;22.61;100.00
63907;BME280;50075;49.484;11.238;2022-08-01T02:00:42;97788.16;;;22.48;100.00
63907;BME280;50075;49.484;11.238;2022-08-01T02:03:09;97791.16;;;22.73;100.00
63907;BME280;50075;49.484;11.238;2022-08-01T02:05:36;97786.25;;;22.78;100.00
63907;BME280;50075;49.484;11.238;2022-08-01T02:08:03;97789.47;;;22.71;100.00
63907;BME280;50075;49.484;11.238;2022-08-01T02:10:31;97791.09;;;22.92;100.00
63907;BME280;50075;49.484;11.238;2022-08-01T02:13:02;97796.38;;;22.55;100.00
63907;BME280;50075;49.484;11.238;2022-08-01T02:15:29;97801.69;;;22.55;100.00
63907;BME280;50075;49.484;11.238;2022-08-01T02:17:56;97801.44;;;22.28;100.00
63907;BME280;50075;49.484;11.238;2022-08-01T02:20:22;97803.91;;;22.49;100.00
63907;BME280;50075;49.484;11.238;2022-08-01T02:23:11;97803.59;;;23.19;100.00
63907;BME280;50075;49.484;11.238;2022-08-01T02:25:46;97817.94;;;22.99;100.00
63907;BME280;50075;49.484;11.238;2022-08-01T02:28:25;97822.53;;;22.59;100.00
63907;BME280;50075;49.484;11.238;2022-08-01T02:30:54;97814.03;;;22.93;100.00
63907;BME280;50075;49.484;11.238;2022-08-01T02:33:23;97808.97;;;22.52;100.00
63907;BME280;50075;49.484;11.238;2022-08-01T02:35:51;97822.94;;;22.55;100.00
63907;BME280;50075;49.484;11.238;2022-08-01T02:38:20;97822.97;;;22.45;100.00
63907;BME280;50075;49.484;11.238;2022-08-01T02:40:48;97820.56;;;22.51;100.00
63907;BME280;50075;49.484;11.238;2022-08-01T02:43:18;97821.97;;;22.56;100.00
63907;BME280;50075;49.484;11.238;2022-08-01T02:45:54;97829.00;;;23.04;100.00
63907;BME280;50075;49.484;11.238;2022-08-01T02:48:22;97825.06;;;23.36;100.00
63907;BME280;50075;49.484;11.238;2022-08-01T02:50:52;97833.16;;;22.59;100.00
63907;BME280;50075;49.484;11.238;2022-08-01T02:53:21;97836.13;;;22.46;100.00
63907;BME280;50075;49.484;11.238;2022-08-01T02:55:49;97837.16;;;22.83;100.00
63907;BME280;50075;49.484;11.238;2022-08-01T02:58:18;97828.41;;;22.63;100.00
63907;BME280;50075;49.484;11.238;2022-08-01T03:00:45;97833.72;;;22.04;100.00
63907;BME280;50075;49.484;11.238;2022-08-01T03:03:12;97832.31;;;21.90;100.00
63907;BME280;50075;49.484;11.238;2022-08-01T03:05:39;97830.63;;;21.80;100.00
63907;BME280;50075;49.484;11.238;2022-08-01T03:08:06;97836.22;;;21.96;100.00
63907;BME280;50075;49.484;11.238;2022-08-01T03:10:33;97837.63;;;21.71;100.00
63907;BME280;50075;49.484;11.238;2022-08-01T03:13:01;97834.25;;;21.98;100.00
63907;BME280;50075;49.484;11.238;2022-08-01T03:15:31;97836.78;;;21.90;100.00
63907;BME280;50075;49.484;11.238;2022-08-01T03:17:59;97835.69;;;22.02;100.00
63907;BME280;50075;49.484;11.238;2022-08-01T03:20:27;97835.09;;;21.89;100.00
63907;BME280;50075;49.484;11.238;2022-08-01T03:22:54;97835.66;;;21.92;100.00
63907;BME280;50075;49.484;11.238;2022-08-01T03:25:22;97832.72;;;22.05;100.00
63907;BME280;50075;49.484;11.238;2022-08-01T03:27:54;97833.56;;;21.96;100.00
63907;BME280;50075;49.484;11.238;2022-08-01T03:30:22;97835.94;;;21.80;100.00
63907;BME280;50075;49.484;11.238;2022-08-01T03:32:48;97841.84;;;22.03;100.00
63907;BME280;50075;49.484;11.238;2022-08-01T03:35:14;97844.75;;;22.00;100.00
63907;BME280;50075;49.484;11.238;2022-08-01T03:37:46;97844.31;;;21.85;100.00
63907;BME280;50075;49.484;11.238;2022-08-01T03:40:25;97844.91;;;22.08;100.00
63907;BME280;50075;49.484;11.238;2022-08-01T03:42:58;97847.16;;;21.93;100.00
63907;BME280;50075;49.484;11.238;2022-08-01T03:45:33;97848.53;;;21.87;100.00
63907;BME280;50075;49.484;11.238;2022-08-01T03:48:01;97858.44;;;21.85;100.00
63907;BME280;50075;49.484;11.238;2022-08-01T03:50:29;97854.41;;;22.49;100.00
63907;BME280;50075;49.484;11.238;2022-08-01T03:53:00;97858.91;;;22.39;100.00
63907;BME280;50075;49.484;11.238;2022-08-01T03:55:27;97860.81;;;21.98;100.00
63907;BME280;50075;49.484;11.238;2022-08-01T03:57:53;97862.69;;;21.47;100.00
63907;BME280;50075;49.484;11.238;2022-08-01T04:00:19;97858.91;;;21.19;100.00
63907;BME280;50075;49.484;11.238;2022-08-01T04:02:47;97865.91;;;21.20;100.00
63907;BME280;50075;49.484;11.238;2022-08-01T04:05:15;97864.59;;;21.95;100.00
63907;BME280;50075;49.484;11.238;2022-08-01T04:07:46;97865.53;;;21.65;100.00
63907;BME280;50075;49.484;11.238;2022-08-01T04:10:11;97865.78;;;21.52;100.00
63907;BME280;50075;49.484;11.238;2022-08-01T04:12:37;97871.38;;;21.59;100.00
63907;BME280;50075;49.484;11.238;2022-08-01T04:15:04;97872.28;;;21.89;100.00
63907;BME280;50075;49.484;11.238;2022-08-01T04:17:29;97877.19;;;21.93;100.00
63907;BME280;50075;49.484;11.238;2022-08-01T04:19:55;97878.78;;;22.45;100.00
63907;BME280;50075;49.484;11.238;2022-08-01T04:22:20;97882.53;;;22.42;100.00
63907;BME280;50075;49.484;11.238;2022-08-01T04:24:47;97881.16;;;22.38;100.00
63907;BME280;50075;49.484;11.238;2022-08-01T04:27:19;97875.53;;;22.70;100.00
63907;BME280;50075;49.484;11.238;2022-08-01T04:29:47;97877.66;;;22.47;100.00
63907;BME280;50075;49.484;11.238;2022-08-01T04:32:16;97880.72;;;22.72;100.00
63907;BME280;50075;49.484;11.238;2022-08-01T04:34:44;97889.66;;;22.71;100.00
63907;BME280;50075;49.484;11.238;2022-08-01T04:37:12;97892.97;;;22.93;100.00
63907;BME280;50075;49.484;11.238;2022-08-01T04:39:41;97900.59;;;22.58;100.00
63907;BME280;50075;49.484;11.238;2022-08-01T04:42:08;97897.47;;;22.24;100.00
63907;BME280;50075;49.484;11.238;2022-08-01T04:44:34;97902.69;;;22.45;100.00
63907;BME280;50075;49.484;11.238;2022-08-01T04:47:01;97900.13;;;22.04;100.00
63907;BME280;50075;49.484;11.238;2022-08-01T04:49:31;97889.88;;;22.97;100.00
63907;BME280;50075;49.484;11.238;2022-08-01T04:51:56;97895.44;;;23.23;100.00
63907;BME280;50075;49.484;11.238;2022-08-01T04:54:30;97897.94;;;23.90;100.00
63907;BME280;50075;49.484;11.238;2022-08-01T04:56:59;97892.38;;;23.83;100.00
63907;BME280;50075;49.484;11.238;2022-08-01T04:59:32;97902.09;;;24.02;100.00
63907;BME280;50075;49.484;11.238;2022-08-01T05:02:11;97905.47;;;23.39;100.00
63907;BME280;50075;49.484;11.238;2022-08-01T05:04:37;97902.66;;;23.41;100.00
63907;BME280;50075;49.484;11.238;2022-08-01T05:07:03;97901.16;;;23.56;100.00
63907;BME280;50075;49.484;11.238;2022-08-01T05:09:29;97912.16;;;23.43;100.00
63907;BME280;50075;49.484;11.238;2022-08-01T05:11:56;97915.56;;;23.36;100.00
63907;BME280;50075;49.484;11.238;2022-08-01T05:14:23;97913.13;;;23.80;100.00
63907;BME280;50075;49.484;11.238;2022-08-01T05:16:49;97923.31;;;23.29;100.00
63907;BME280;50075;49.484;11.238;2022-08-01T05:19:14;97917.19;;;23.84;100.00
63907;BME280;50075;49.484;11.238;2022-08-01T05:21:39;97915.03;;;24.33;100.00
63907;BME280;50075;49.484;11.238;2022-08-01T05:24:05;97919.63;;;23.67;100.00
63907;BME280;50075;49.484;11.238;2022-08-01T05:26:31;97924.31;;;23.93;100.00
63907;BME280;50075;49.484;11.238;2022-08-01T05:28:56;97916.09;;;24.04;100.00
63907;BME280;50075;49.484;11.238;2022-08-01T05:31:21;97919.72;;;24.03;100.00
63907;BME280;50075;49.484;11.238;2022-08-01T05:33:47;97921.09;;;24.08;100.00
63907;BME280;50075;49.484;11.238;2022-08-01T05:36:12;97919.16;;;24.10;100.00
63907;BME280;50075;49.484;11.238;2022-08-01T05:38:37;97920.34;;;24.33;100.00
63907;BME280;50075;49.484;11.238;2022-08-01T05:41:03;97921.38;;;24.68;100.00
63907;BME280;50075;49.484;11.238;2022-08-01T05:43:28;97923.22;;;24.68;100.00
63907;BME280;50075;49.484;11.238;2022-08-01T05:45:53;97926.53;;;25.32;100.00
63907;BME280;50075;49.484;11.238;2022-08-01T05:48:19;97928.41;;;26.41;100.00
63907;BME280;50075;49.484;11.238;2022-08-01T05:50:44;97924.91;;;27.23;100.00
63907;BME280;50075;49.484;11.238;2022-08-01T05:53:09;97930.16;;;26.91;100.00
63907;BME280;50075;49.484;11.238;2022-08-01T05:55:35;97922.13;;;27.72;92.04
63907;BME280;50075;49.484;11.238;2022-08-01T05:58:01;97920.44;;;29.41;76.65
63907;BME280;50075;49.484;11.238;2022-08-01T06:00:27;97920.91;;;30.47;67.90
63907;BME280;50075;49.484;11.238;2022-08-01T06:02:52;97928.25;;;31.31;61.50
63907;BME280;50075;49.484;11.238;2022-08-01T06:05:18;97925.03;;;31.15;58.19
63907;BME280;50075;49.484;11.238;2022-08-01T06:07:43;97921.72;;;33.51;52.31
63907;BME280;50075;49.484;11.238;2022-08-01T06:10:09;97923.63;;;31.95;52.41
63907;BME280;50075;49.484;11.238;2022-08-01T06:12:35;97920.34;;;32.95;50.21
63907;BME280;50075;49.484;11.238;2022-08-01T06:15:02;97920.41;;;33.80;48.65
63907;BME280;50075;49.484;11.238;2022-08-01T06:17:27;97918.91;;;34.68;44.96
63907;BME280;50075;49.484;11.238;2022-08-01T06:19:53;97927.97;;;36.83;42.35
63907;BME280;50075;49.484;11.238;2022-08-01T06:22:18;97919.06;;;36.64;41.25
63907;BME280;50075;49.484;11.238;2022-08-01T06:24:43;97928.94;;;37.13;39.70
63907;BME280;50075;49.484;11.238;2022-08-01T06:27:09;97929.09;;;38.06;37.22
63907;BME280;50075;49.484;11.238;2022-08-01T06:29:34;97926.78;;;37.86;37.94
63907;BME280;50075;49.484;11.238;2022-08-01T06:32:00;97922.34;;;37.32;37.24
63907;BME280;50075;49.484;11.238;2022-08-01T06:34:25;97929.53;;;36.00;39.42
63907;BME280;50075;49.484;11.238;2022-08-01T06:36:51;97923.16;;;35.95;39.73
63907;BME280;50075;49.484;11.238;2022-08-01T06:39:16;97928.13;;;34.28;42.13
63907;BME280;50075;49.484;11.238;2022-08-01T06:41:42;97928.84;;;34.04;44.56
63907;BME280;50075;49.484;11.238;2022-08-01T06:44:07;97928.63;;;34.05;44.09
63907;BME280;50075;49.484;11.238;2022-08-01T06:46:34;97926.38;;;35.66;41.89
63907;BME280;50075;49.484;11.238;2022-08-01T06:48:59;97938.59;;;32.66;45.92
63907;BME280;50075;49.484;11.238;2022-08-01T06:51:24;97935.44;;;33.63;46.57
63907;BME280;50075;49.484;11.238;2022-08-01T06:53:50;97928.22;;;33.03;48.10
63907;BME280;50075;49.484;11.238;2022-08-01T06:56:15;97929.31;;;31.65;51.44
63907;BME280;50075;49.484;11.238;2022-08-01T06:58:40;97925.94;;;30.93;54.28
63907;BME280;50075;49.484;11.238;2022-08-01T07:01:06;97938.41;;;31.29;54.65
63907;BME280;50075;49.484;11.238;2022-08-01T07:03:33;97928.31;;;30.88;55.91
63907;BME280;50075;49.484;11.238;2022-08-01T07:05:58;97935.63;;;30.73;58.93
63907;BME280;50075;49.484;11.238;2022-08-01T07:08:24;97935.66;;;30.51;60.34
63907;BME280;50075;49.484;11.238;2022-08-01T07:10:49;97934.88;;;30.21;63.03
63907;BME280;50075;49.484;11.238;2022-08-01T07:13:14;97940.06;;;29.86;65.31
63907;BME280;50075;49.484;11.238;2022-08-01T07:15:46;97942.00;;;29.33;73.08
63907;BME280;50075;49.484;11.238;2022-08-01T07:18:11;97945.59;;;29.99;68.06
63907;BME280;50075;49.484;11.238;2022-08-01T07:20:37;97940.94;;;30.08;67.41
63907;BME280;50075;49.484;11.238;2022-08-01T07:23:03;97941.53;;;29.59;71.85
63907;BME280;50075;49.484;11.238;2022-08-01T07:25:28;97943.38;;;29.44;72.05
63907;BME280;50075;49.484;11.238;2022-08-01T07:27:54;97941.72;;;29.42;73.75
63907;BME280;50075;49.484;11.238;2022-08-01T07:30:19;97940.88;;;29.57;73.65
63907;BME280;50075;49.484;11.238;2022-08-01T07:32:44;97935.63;;;29.78;71.49
63907;BME280;50075;49.484;11.238;2022-08-01T07:35:10;97938.78;;;30.33;67.76
63907;BME280;50075;49.484;11.238;2022-08-01T07:37:35;97938.66;;;30.27;67.18
63907;BME280;50075;49.484;11.238;2022-08-01T07:40:01;97937.56;;;30.21;67.42
63907;BME280;50075;49.484;11.238;2022-08-01T07:42:29;97940.78;;;30.46;68.59
63907;BME280;50075;49.484;11.238;2022-08-01T07:44:54;97944.50;;;31.73;62.09
63907;BME280;50075;49.484;11.238;2022-08-01T07:47:24;97948.25;;;31.79;59.85
63907;BME280;50075;49.484;11.238;2022-08-01T07:49:49;97941.78;;;33.95;51.30
63907;BME280;50075;49.484;11.238;2022-08-01T07:52:14;97940.16;;;33.87;50.62
63907;BME280;50075;49.484;11.238;2022-08-01T07:54:40;97940.72;;;33.17;51.54
63907;BME280;50075;49.484;11.238;2022-08-01T07:57:05;97949.59;;;34.16;49.84
63907;BME280;50075;49.484;11.238;2022-08-01T07:59:31;97943.19;;;33.32;50.80
63907;BME280;50075;49.484;11.238;2022-08-01T08:01:56;97938.59;;;34.11;47.97
63907;BME280;50075;49.484;11.238;2022-08-01T08:04:21;97944.47;;;33.16;51.82
63907;BME280;50075;49.484;11.238;2022-08-01T08:06:47;97944.66;;;32.81;51.48
63907;BME280;50075;49.484;11.238;2022-08-01T08:09:14;97946.06;;;33.51;48.79
63907;BME280;50075;49.484;11.238;2022-08-01T08:11:44;97945.69;;;33.20;53.09
63907;BME280;50075;49.484;11.238;2022-08-01T08:14:09;97946.72;;;34.18;47.57
63907;BME280;50075;49.484;11.238;2022-08-01T08:16:35;97946.50;;;35.40;45.12
63907;BME280;50075;49.484;11.238;2022-08-01T08:19:00;97940.03;;;35.97;43.69
63907;BME280;50075;49.484;11.238;2022-08-01T08:21:26;97941.88;;;35.84;42.71
63907;BME280;50075;49.484;11.238;2022-08-01T08:23:52;97939.81;;;35.80;43.24
63907;BME280;50075;49.484;11.238;2022-08-01T08:26:36;97935.06;;;34.17;45.40
63907;BME280;50075;49.484;11.238;2022-08-01T08:29:02;97942.97;;;32.94;48.81
63907;BME280;50075;49.484;11.238;2022-08-01T08:31:28;97948.94;;;32.49;50.24
63907;BME280;50075;49.484;11.238;2022-08-01T08:33:53;97948.38;;;32.05;52.56
63907;BME280;50075;49.484;11.238;2022-08-01T08:36:19;97947.34;;;31.65;55.67
63907;BME280;50075;49.484;11.238;2022-08-01T08:38:44;97943.81;;;33.28;49.04
63907;BME280;50075;49.484;11.238;2022-08-01T08:41:10;97941.41;;;33.91;47.71
63907;BME280;50075;49.484;11.238;2022-08-01T08:43:35;97938.59;;;34.50;47.32
63907;BME280;50075;49.484;11.238;2022-08-01T08:46:01;97940.16;;;33.87;47.32
63907;BME280;50075;49.484;11.238;2022-08-01T08:48:27;97943.56;;;34.60;45.60
63907;BME280;50075;49.484;11.238;2022-08-01T08:50:54;97934.88;;;33.20;47.50
63907;BME280;50075;49.484;11.238;2022-08-01T08:53:20;97938.44;;;33.99;46.70
63907;BME280;50075;49.484;11.238;2022-08-01T08:55:47;97933.88;;;33.21;46.54
63907;BME280;50075;49.484;11.238;2022-08-01T08:58:14;97927.47;;;35.22;42.33
63907;BME280;50075;49.484;11.238;2022-08-01T09:00:40;97944.03;;;33.19;46.15
63907;BME280;50075;49.484;11.238;2022-08-01T09:03:06;97932.44;;;31.69;49.39
63907;BME280;50075;49.484;11.238;2022-08-01T09:05:31;97941.13;;;32.06;47.95
63907;BME280;50075;49.484;11.238;2022-08-01T09:07:56;97939.22;;;31.58;51.10
63907;BME280;50075;49.484;11.238;2022-08-01T09:10:22;97943.41;;;30.83;52.81
63907;BME280;50075;49.484;11.238;2022-08-01T09:15:38;97941.75;;;33.16;46.31
63907;BME280;50075;49.484;11.238;2022-08-01T09:18:04;97948.16;;;32.75;46.26
63907;BME280;50075;49.484;11.238;2022-08-01T09:20:30;97949.28;;;33.99;43.43
63907;BME280;50075;49.484;11.238;2022-08-01T09:22:55;97944.00;;;33.46;43.80
63907;BME280;50075;49.484;11.238;2022-08-01T09:25:21;97948.38;;;32.80;45.96
63907;BME280;50075;49.484;11.238;2022-08-01T09:27:46;97945.88;;;34.11;43.38
63907;BME280;50075;49.484;11.238;2022-08-01T09:30:16;97946.34;;;31.38;47.45
63907;BME280;50075;49.484;11.238;2022-08-01T09:33:02;97940.75;;;31.74;48.50
63907;BME280;50075;49.484;11.238;2022-08-01T09:35:28;97947.78;;;31.68;48.20
63907;BME280;50075;49.484;11.238;2022-08-01T09:40:57;97951.41;;;32.37;47.75
63907;BME280;50075;49.484;11.238;2022-08-01T09:43:27;97947.91;;;32.57;47.03
63907;BME280;50075;49.484;11.238;2022-08-01T09:45:53;97952.13;;;33.19;46.22
63907;BME280;50075;49.484;11.238;2022-08-01T09:48:23;97948.81;;;32.09;47.34
63907;BME280;50075;49.484;11.238;2022-08-01T09:50:50;97950.19;;;32.53;46.36
63907;BME280;50075;49.484;11.238;2022-08-01T09:53:16;97957.44;;;31.91;49.04
63907;BME280;50075;49.484;11.238;2022-08-01T09:55:42;97953.75;;;31.36;49.67
63907;BME280;50075;49.484;11.238;2022-08-01T09:58:09;97954.63;;;31.43;49.93
63907;BME280;50075;49.484;11.238;2022-08-01T10:00:38;97949.72;;;34.42;43.83
63907;BME280;50075;49.484;11.238;2022-08-01T10:03:23;97947.69;;;34.94;42.07
63907;BME280;50075;49.484;11.238;2022-08-01T10:05:50;97940.94;;;36.70;40.24
63907;BME280;50075;49.484;11.238;2022-08-01T10:08:16;97931.31;;;35.76;40.40
63907;BME280;50075;49.484;11.238;2022-08-01T10:11:04;97937.31;;;35.97;37.92
63907;BME280;50075;49.484;11.238;2022-08-01T10:13:30;97933.59;;;33.56;42.49
63907;BME280;50075;49.484;11.238;2022-08-01T10:15:56;97937.66;;;35.70;39.85
63907;BME280;50075;49.484;11.238;2022-08-01T10:18:21;97925.97;;;34.75;40.53
63907;BME280;50075;49.484;11.238;2022-08-01T10:20:47;97930.75;;;33.96;41.29
63907;BME280;50075;49.484;11.238;2022-08-01T10:23:13;97926.75;;;33.40;42.05
63907;BME280;50075;49.484;11.238;2022-08-01T10:25:42;97924.22;;;34.11;40.58
63907;BME280;50075;49.484;11.238;2022-08-01T10:28:16;97921.72;;;34.54;40.94
63907;BME280;50075;49.484;11.238;2022-08-01T10:30:42;97916.56;;;33.36;42.61
63907;BME280;50075;49.484;11.238;2022-08-01T10:33:09;97926.47;;;33.75;43.06
63907;BME280;50075;49.484;11.238;2022-08-01T10:35:35;97917.84;;;33.00;43.87
63907;BME280;50075;49.484;11.238;2022-08-01T10:38:01;97913.81;;;31.81;45.52
63907;BME280;50075;49.484;11.238;2022-08-01T10:40:26;97914.09;;;33.34;44.18
63907;BME280;50075;49.484;11.238;2022-08-01T10:42:53;97910.81;;;33.12;44.28
63907;BME280;50075;49.484;11.238;2022-08-01T10:45:19;97912.44;;;33.00;43.86
63907;BME280;50075;49.484;11.238;2022-08-01T10:48:07;97905.56;;;34.41;41.85
63907;BME280;50075;49.484;11.238;2022-08-01T10:50:41;97913.81;;;34.08;41.68
63907;BME280;50075;49.484;11.238;2022-08-01T10:53:16;97903.28;;;33.34;43.36
63907;BME280;50075;49.484;11.238;2022-08-01T10:55:46;97914.75;;;33.16;44.60
63907;BME280;50075;49.484;11.238;2022-08-01T10:58:11;97910.81;;;33.12;43.84
63907;BME280;50075;49.484;11.238;2022-08-01T11:00:36;97909.06;;;32.51;45.09
63907;BME280;50075;49.484;11.238;2022-08-01T11:03:03;97911.16;;;32.56;46.06
63907;BME280;50075;49.484;11.238;2022-08-01T11:05:34;97913.56;;;32.24;44.87
63907;BME280;50075;49.484;11.238;2022-08-01T11:08:06;97911.38;;;31.86;45.95
63907;BME280;50075;49.484;11.238;2022-08-01T11:10:39;97907.22;;;31.90;47.18
63907;BME280;50075;49.484;11.238;2022-08-01T11:13:06;97906.19;;;31.91;47.18
63907;BME280;50075;49.484;11.238;2022-08-01T11:15:37;97903.22;;;32.34;47.30
63907;BME280;50075;49.484;11.238;2022-08-01T11:18:32;97897.00;;;32.40;46.70
63907;BME280;50075;49.484;11.238;2022-08-01T11:21:02;97900.59;;;34.95;41.04
63907;BME280;50075;49.484;11.238;2022-08-01T11:23:28;97908.84;;;34.82;39.71
63907;BME280;50075;49.484;11.238;2022-08-01T11:28:22;97892.81;;;33.51;42.94
63907;BME280;50075;49.484;11.238;2022-08-01T11:33:50;97893.97;;;31.95;43.37
63907;BME280;50075;49.484;11.238;2022-08-01T11:36:16;97890.66;;;33.80;41.53
63907;BME280;50075;49.484;11.238;2022-08-01T11:41:27;97889.50;;;35.22;39.71
63907;BME280;50075;49.484;11.238;2022-08-01T11:52:08;97891.41;;;33.42;41.73
63907;BME280;50075;49.484;11.238;2022-08-01T11:54:36;97893.13;;;33.16;42.82
63907;BME280;50075;49.484;11.238;2022-08-01T11:57:04;97895.91;;;31.66;44.47
63907;BME280;50075;49.484;11.238;2022-08-01T11:59:39;97889.94;;;32.46;44.59
63907;BME280;50075;49.484;11.238;2022-08-01T12:02:22;97883.94;;;32.37;44.42
63907;BME280;50075;49.484;11.238;2022-08-01T12:04:56;97883.50;;;33.34;43.51
63907;BME280;50075;49.484;11.238;2022-08-01T12:07:23;97884.97;;;33.30;43.25
63907;BME280;50075;49.484;11.238;2022-08-01T12:09:56;97882.94;;;32.98;44.97
63907;BME280;50075;49.484;11.238;2022-08-01T12:12:22;97877.53;;;32.65;44.01
63907;BME280;50075;49.484;11.238;2022-08-01T12:14:56;97880.84;;;33.20;43.11
63907;BME280;50075;49.484;11.238;2022-08-01T12:19:59;97880.69;;;31.94;44.45
63907;BME280;50075;49.484;11.238;2022-08-01T12:22:25;97882.50;;;33.08;43.47
63907;BME280;50075;49.484;11.238;2022-08-01T12:24:51;97878.78;;;32.76;44.19
63907;BME280;50075;49.484;11.238;2022-08-01T12:27:28;97875.84;;;33.04;44.67
63907;BME280;50075;49.484;11.238;2022-08-01T12:29:56;97881.47;;;32.62;44.71
63907;BME280;50075;49.484;11.238;2022-08-01T12:34:57;97883.91;;;34.03;41.95
63907;BME280;50075;49.484;11.238;2022-08-01T12:37:25;97880.59;;;32.35;44.32
63907;BME280;50075;49.484;11.238;2022-08-01T12:39:51;97886.00;;;33.42;44.38
63907;BME280;50075;49.484;11.238;2022-08-01T12:42:17;97888.75;;;33.15;44.33
63907;BME280;50075;49.484;11.238;2022-08-01T12:44:45;97878.31;;;32.32;45.48
63907;BME280;50075;49.484;11.238;2022-08-01T12:47:13;97884.13;;;31.67;46.27
63907;BME280;50075;49.484;11.238;2022-08-01T12:49:41;97876.28;;;33.14;44.15
63907;BME280;50075;49.484;11.238;2022-08-01T12:52:08;97877.94;;;32.75;45.36
63907;BME280;50075;49.484;11.238;2022-08-01T12:54:59;97876.28;;;33.14;45.18
63907;BME280;50075;49.484;11.238;2022-08-01T12:57:25;97882.94;;;31.90;46.21
63907;BME280;50075;49.484;11.238;2022-08-01T12:59:52;97879.78;;;33.08;44.61
63907;BME280;50075;49.484;11.238;2022-08-01T13:02:18;97874.41;;;32.75;45.88
63907;BME280;50075;49.484;11.238;2022-08-01T13:04:50;97874.78;;;34.92;42.00
63907;BME280;50075;49.484;11.238;2022-08-01T13:07:18;97876.25;;;33.08;42.62
63907;BME280;50075;49.484;11.238;2022-08-01T13:09:51;97867.78;;;33.76;42.41
63907;BME280;50075;49.484;11.238;2022-08-01T13:12:16;97871.97;;;33.72;42.51
63907;BME280;50075;49.484;11.238;2022-08-01T13:14:42;97870.53;;;33.63;42.64
63907;BME280;50075;49.484;11.238;2022-08-01T13:17:07;97864.06;;;33.64;41.96
63907;BME280;50075;49.484;11.238;2022-08-01T13:19:45;97868.75;;;34.33;40.28
63907;BME280;50075;49.484;11.238;2022-08-01T13:22:12;97860.69;;;34.52;40.44